createdAt,value
2022-10-02T00:02:41.449Z,100564.22
2022-10-02T00:08:01.455Z,100609.59
2022-10-02T00:13:03.473Z,100573.03
2022-10-02T00:18:40.622Z,100519.06
2022-10-02T00:23:49.935Z,100538.00
2022-10-02T00:28:58.795Z,100520.59
2022-10-02T00:34:22.249Z,100521.34
2022-10-02T00:40:05.799Z,100530.94
2022-10-02T00:45:35.109Z,100525.78
2022-10-02T00:51:04.273Z,100510.31
2022-10-02T00:56:36.955Z,100500.84
2022-10-02T01:01:49.539Z,100468.00
2022-10-02T01:06:47.487Z,100464.00
2022-10-02T01:11:49.292Z,100451.13
2022-10-02T01:16:49.956Z,100424.53
2022-10-02T01:21:54.101Z,100413.34
2022-10-02T01:26:51.934Z,100429.34
2022-10-02T01:31:53.194Z,100432.47
2022-10-02T01:36:52.355Z,100452.28
2022-10-02T01:41:55.670Z,100398.66
2022-10-02T01:47:09.043Z,100433.28
2022-10-02T01:52:10.586Z,100482.53
2022-10-02T01:57:54.717Z,100492.06
2022-10-02T02:03:24.801Z,100505.00
2022-10-02T02:08:31.012Z,100506.91
2022-10-02T02:13:40.872Z,100488.38
2022-10-02T02:18:50.173Z,100468.13
2022-10-02T02:23:50.917Z,100438.31
2022-10-02T02:28:56.893Z,100444.41
2022-10-02T02:34:11.725Z,100449.47
2022-10-02T02:39:17.439Z,100441.47
2022-10-02T02:44:21.294Z,100451.00
2022-10-02T02:49:19.364Z,100490.53
2022-10-02T02:54:24.013Z,100459.09
2022-10-02T02:59:26.419Z,100441.28
2022-10-02T03:04:25.150Z,100472.94
2022-10-02T03:09:24.414Z,100450.75
2022-10-02T03:14:54.149Z,100443.41
2022-10-02T03:20:09.231Z,100487.22
2022-10-02T03:25:14.461Z,100471.13
2022-10-02T03:30:14.169Z,100458.78
2022-10-02T03:35:13.391Z,100472.75
2022-10-02T03:40:11.735Z,100476.38
2022-10-02T03:45:19.614Z,100488.06
2022-10-02T03:50:26.905Z,100499.31
2022-10-02T03:55:37.051Z,100530.97
2022-10-02T04:00:41.198Z,100500.09
2022-10-02T04:05:48.134Z,100544.03
2022-10-02T04:10:58.522Z,100493.34
2022-10-02T04:16:18.740Z,100545.97
2022-10-02T04:21:41.754Z,100560.22
2022-10-02T04:26:43.773Z,100553.78
2022-10-02T04:31:41.918Z,100559.66
2022-10-02T04:37:04.228Z,100565.03
2022-10-02T04:42:21.001Z,100516.50
2022-10-02T04:47:24.638Z,100569.38
2022-10-02T04:52:32.625Z,100539.31
2022-10-02T04:57:52.166Z,100581.19
2022-10-02T05:03:01.323Z,100582.41
2022-10-02T05:08:29.994Z,100559.56
2022-10-02T05:13:32.144Z,100579.94
2022-10-02T05:18:41.972Z,100595.13
2022-10-02T05:23:51.629Z,100579.00
2022-10-02T05:29:04.046Z,100587.34
2022-10-02T05:34:34.091Z,100604.16
2022-10-02T05:39:37.750Z,100584.94
2022-10-02T05:45:23.337Z,100614.03
2022-10-02T05:50:25.395Z,100593.38
2022-10-02T05:55:28.715Z,100642.06
2022-10-02T06:00:33.371Z,100647.94
2022-10-02T06:05:45.351Z,100650.34
2022-10-02T06:10:59.326Z,100591.41
2022-10-02T06:16:05.198Z,100647.41
2022-10-02T06:21:18.997Z,100596.88
2022-10-02T06:26:32.284Z,100629.59
2022-10-02T06:31:55.449Z,100649.59
2022-10-02T06:37:12.099Z,100657.66
2022-10-02T06:42:18.038Z,100642.16
2022-10-02T06:47:27.942Z,100632.28
2022-10-02T06:53:20.270Z,100643.00
2022-10-02T06:59:28.340Z,100663.34
2022-10-02T07:04:59.415Z,100657.44
2022-10-02T07:10:13.595Z,100656.28
2022-10-02T07:15:17.951Z,100670.09
2022-10-02T07:20:21.777Z,100664.19
2022-10-02T07:25:40.139Z,100682.81
2022-10-02T07:30:51.722Z,100673.50
2022-10-02T07:36:31.672Z,100708.53
2022-10-02T07:41:45.445Z,100689.22
2022-10-02T07:47:05.038Z,100723.31
2022-10-02T07:52:06.357Z,100725.69
2022-10-02T07:57:26.048Z,100725.69
2022-10-02T08:03:05.123Z,100734.06
2022-10-02T08:08:32.937Z,100741.69
2022-10-02T08:13:40.339Z,100710.03
2022-10-02T08:19:03.628Z,100729.66
2022-10-02T08:24:14.877Z,100748.44
2022-10-02T08:29:15.714Z,100777.91
2022-10-02T08:34:18.466Z,100764.09
2022-10-02T08:39:38.168Z,100749.72
2022-10-02T08:44:49.258Z,100783.03
2022-10-02T08:49:56.767Z,100775.09
2022-10-02T08:55:07.149Z,100735.69
2022-10-02T09:00:17.247Z,100731.03
2022-10-02T09:05:43.343Z,100792.81
2022-10-02T09:11:12.840Z,100775.13
2022-10-02T09:16:22.709Z,100764.56
2022-10-02T09:21:37.781Z,100793.75
2022-10-02T09:27:05.603Z,100754.59
2022-10-02T09:32:53.185Z,100799.84
2022-10-02T09:38:22.602Z,100802.69
2022-10-02T09:44:13.148Z,100772.44
2022-10-02T09:49:53.027Z,100787.97
2022-10-02T09:55:22.562Z,100785.88
2022-10-02T10:00:52.052Z,100815.50
2022-10-02T10:06:21.248Z,100764.34
2022-10-02T10:11:40.446Z,100783.03
2022-10-02T10:17:14.666Z,100796.53
2022-10-02T10:22:25.053Z,100801.31
2022-10-02T10:27:30.235Z,100801.66
2022-10-02T10:33:09.834Z,100796.53
2022-10-02T10:38:38.545Z,100801.19
2022-10-02T10:44:01.407Z,100797.47
2022-10-02T10:49:17.575Z,100773.34
2022-10-02T10:54:35.425Z,100797.44
2022-10-02T10:59:54.559Z,100753.13
2022-10-02T11:05:18.559Z,100785.75
2022-10-02T11:10:39.105Z,100783.66
2022-10-02T11:16:27.147Z,100790.66
2022-10-02T11:21:47.156Z,100765.25
2022-10-02T11:27:22.927Z,100768.91
2022-10-02T11:32:48.665Z,100769.34
2022-10-02T11:38:08.401Z,100766.19
2022-10-02T11:43:33.693Z,100761.63
2022-10-02T11:48:56.932Z,100772.13
2022-10-02T11:54:33.356Z,100773.31
2022-10-02T11:59:40.123Z,100772.47
2022-10-02T12:04:47.650Z,100803.41
2022-10-02T12:10:23.643Z,100822.63
2022-10-02T12:15:31.143Z,100762.50
2022-10-02T12:21:04.869Z,100798.66
2022-10-02T12:26:43.646Z,100762.66
2022-10-02T12:31:57.639Z,100801.94
2022-10-02T12:37:06.987Z,100809.09
2022-10-02T12:42:08.581Z,100814.66
2022-10-02T12:47:45.017Z,100817.19
2022-10-02T12:53:30.646Z,100808.47
2022-10-02T12:58:43.520Z,100831.09
2022-10-02T13:03:57.024Z,100827.75
2022-10-02T13:09:07.099Z,100833.38
2022-10-02T13:14:17.889Z,100762.00
2022-10-02T13:19:19.408Z,100815.16
2022-10-02T13:24:47.569Z,100818.84
2022-10-02T13:29:46.138Z,100832.28
2022-10-02T13:34:52.420Z,100830.28
2022-10-02T13:39:56.982Z,100816.41
2022-10-02T13:45:14.059Z,100823.34
2022-10-02T13:50:33.340Z,100801.44
2022-10-02T14:02:11.653Z,100822.25
2022-10-02T14:07:52.926Z,100837.81
2022-10-02T14:13:40.125Z,100833.25
2022-10-02T14:19:05.190Z,100835.72
2022-10-02T14:24:23.027Z,100866.50
2022-10-02T14:29:41.488Z,100865.66
2022-10-02T14:35:08.492Z,100851.56
2022-10-02T14:40:38.895Z,100871.06
2022-10-02T14:46:03.521Z,100874.13
2022-10-02T14:51:26.415Z,100865.63
2022-10-02T14:56:48.868Z,100883.31
2022-10-02T15:02:40.103Z,100875.50
2022-10-02T15:07:45.802Z,100848.75
2022-10-02T15:13:10.480Z,100889.34
2022-10-02T15:18:16.632Z,100901.25
2022-10-02T15:23:26.505Z,100888.69
2022-10-02T15:29:00.099Z,100859.84
2022-10-02T15:40:35.723Z,100910.00
2022-10-02T15:46:30.845Z,100888.94
2022-10-02T15:51:57.591Z,100892.50
2022-10-02T15:57:37.921Z,100901.19
2022-10-02T16:02:54.528Z,100913.19
2022-10-02T16:08:03.476Z,100912.63
2022-10-02T16:13:21.357Z,100898.50
2022-10-02T16:18:51.301Z,100902.38
2022-10-02T16:29:55.203Z,100876.38
2022-10-02T16:35:08.175Z,100897.41
2022-10-02T16:40:40.954Z,100876.44
2022-10-02T16:45:59.494Z,100878.88
2022-10-02T16:51:09.832Z,100915.63
2022-10-02T16:56:14.079Z,100872.88
2022-10-02T17:02:15.963Z,100901.03
2022-10-02T17:07:47.808Z,100914.34
2022-10-02T17:13:19.409Z,100889.38
2022-10-02T17:18:58.569Z,100918.88
2022-10-02T17:24:35.107Z,100903.41
2022-10-02T17:29:53.903Z,100884.88
2022-10-02T17:34:55.891Z,100912.69
2022-10-02T17:40:16.799Z,100938.69
2022-10-02T17:45:52.823Z,100932.78
2022-10-02T17:51:24.492Z,100922.44
2022-10-02T17:56:49.643Z,100934.84
2022-10-02T18:02:37.634Z,100916.78
2022-10-02T18:08:03.298Z,100925.72
2022-10-02T18:13:28.541Z,100929.16
2022-10-02T18:18:40.105Z,100921.88
2022-10-02T18:23:45.783Z,100919.22
2022-10-02T18:28:59.936Z,100933.03
2022-10-02T18:34:33.756Z,100945.63
2022-10-02T18:40:21.824Z,100954.56
2022-10-02T18:45:37.980Z,100945.63
2022-10-02T18:51:22.048Z,100951.31
2022-10-02T18:56:56.807Z,100947.03
2022-10-02T19:02:17.515Z,100935.59
2022-10-02T19:07:29.957Z,100900.22
2022-10-02T19:12:33.314Z,100929.75
2022-10-02T19:18:09.533Z,100948.44
2022-10-02T19:23:40.019Z,100919.03
2022-10-02T19:29:10.719Z,100925.06
2022-10-02T19:34:42.230Z,100922.63
2022-10-02T19:39:47.110Z,100909.56
2022-10-02T19:45:25.686Z,100920.72
2022-10-02T19:50:44.655Z,100921.09
2022-10-02T19:56:02.603Z,100905.47
2022-10-02T20:01:03.597Z,100903.03
2022-10-02T20:06:17.651Z,100893.81
2022-10-02T20:11:39.776Z,100896.41
2022-10-02T20:17:08.231Z,100901.22
2022-10-02T20:22:19.745Z,100887.38
2022-10-02T20:27:47.271Z,100920.47
2022-10-02T20:32:54.181Z,100902.09
2022-10-02T20:37:54.330Z,100930.25
2022-10-02T20:43:09.789Z,100925.50
2022-10-02T20:48:32.685Z,100946.28
2022-10-02T20:54:12.425Z,100936.19
2022-10-02T20:59:59.735Z,100928.72
2022-10-02T21:05:44.859Z,100944.72
2022-10-02T21:11:13.696Z,100929.72
2022-10-02T21:17:05.954Z,100919.66
2022-10-02T21:22:25.151Z,100923.44
2022-10-02T21:27:57.436Z,100887.13
2022-10-02T21:33:17.103Z,100880.78
2022-10-02T21:38:55.245Z,100934.66
2022-10-02T21:44:08.920Z,100938.59
2022-10-02T21:49:54.800Z,100869.66
2022-10-02T21:55:29.231Z,100931.72
2022-10-02T22:00:35.362Z,100931.78
2022-10-02T22:05:57.056Z,100940.81
2022-10-02T22:12:18.926Z,100941.41
2022-10-02T22:17:50.320Z,100946.00
2022-10-02T22:28:51.762Z,100956.09
2022-10-02T22:34:46.003Z,100938.88
2022-10-02T22:48:01.265Z,100934.09
2022-10-02T22:58:59.479Z,100880.59
2022-10-02T23:04:14.458Z,100926.59
2022-10-02T23:09:41.364Z,100924.94
2022-10-02T23:14:59.122Z,100937.88
2022-10-02T23:20:10.531Z,100939.44
2022-10-02T23:25:35.256Z,100924.31
2022-10-02T23:30:40.751Z,100911.31
2022-10-02T23:35:44.784Z,100917.13
2022-10-02T23:41:42.334Z,100920.47
2022-10-02T23:46:52.682Z,100918.66
2022-10-02T23:51:54.865Z,100917.00
2022-10-02T23:57:05.747Z,100914.53
